Time;durP1;ratioP1;P1;durP2;ratioP2;P2;SDS_P1;SDS_P2;PMS_P1;PMS_P2;Temp;Humidity;BMP_temperature;BMP_pressure;BME280_temperature;BME280_humidity;BME280_pressure;Samples;Min_cycle;Max_cycle;Signal;HPM_P1;HPM_P2
2022/04/26 03:38:02;;;;;;;0.40;0.30;;;;;;;12.60;84.15;94962.50;5134617;27;20943;-52
2022/04/26 03:40:31;;;;;;;0.30;0.20;;;;;;;12.62;88.34;94965.63;5134623;27;21011;-51
2022/04/26 03:42:59;;;;;;;0.40;0.40;;;;;;;12.62;86.23;94968.28;5134152;27;20557;-51
2022/04/26 03:45:28;;;;;;;0.30;0.20;;;;;;;12.56;87.29;94966.03;5134135;27;20510;-51
2022/04/26 03:47:56;;;;;;;0.40;0.30;;;;;;;12.53;88.21;94970.03;5134393;27;20443;-51
2022/04/26 03:50:26;;;;;;;0.30;0.20;;;;;;;12.52;88.03;94973.78;5133649;27;20564;-51
2022/04/26 03:52:55;;;;;;;0.37;0.20;;;;;;;12.56;85.33;94979.31;5134281;27;20525;-52
2022/04/26 03:55:24;;;;;;;0.30;0.20;;;;;;;12.48;90.75;94978.09;5133702;27;20429;-51
2022/04/26 03:57:52;;;;;;;3.70;1.57;;;;;;;12.54;90.04;94973.50;5134161;27;20430;-51
2022/04/26 04:00:21;;;;;;;0.40;0.20;;;;;;;12.55;88.64;94981.19;5134242;27;20406;-51
2022/04/26 04:02:49;;;;;;;0.30;0.20;;;;;;;11.87;98.52;94985.31;5134080;27;20865;-51
2022/04/26 04:05:18;;;;;;;0.30;0.20;;;;;;;11.53;100.00;94990.75;5133957;27;20505;-51
2022/04/26 04:07:48;;;;;;;2.20;0.70;;;;;;;11.87;100.00;94978.16;5133993;27;20448;-51
2022/04/26 04:10:16;;;;;;;0.40;0.30;;;;;;;11.75;100.00;94985.75;5133709;27;20504;-51
2022/04/26 04:12:44;;;;;;;0.30;0.20;;;;;;;11.68;100.00;94987.94;5133890;27;20497;-51
2022/04/26 04:15:13;;;;;;;0.37;0.20;;;;;;;11.77;100.00;95001.38;5133520;27;20461;-51
2022/04/26 04:17:41;;;;;;;0.57;0.57;;;;;;;11.65;100.00;94998.31;5133656;27;21000;-50
2022/04/26 04:20:11;;;;;;;2.50;0.60;;;;;;;11.88;100.00;94997.53;5134074;27;20532;-51
2022/04/26 04:22:40;;;;;;;0.67;0.67;;;;;;;12.27;100.00;94987.44;5133568;27;20466;-52
2022/04/26 04:25:10;;;;;;;0.50;0.30;;;;;;;12.63;96.70;94999.13;5133572;27;20443;-51
2022/04/26 04:27:38;;;;;;;0.40;0.30;;;;;;;12.47;96.78;95004.97;5133484;27;20521;-51
2022/04/26 04:30:08;;;;;;;0.37;0.30;;;;;;;11.93;100.00;95010.75;5133310;27;20970;-51
2022/04/26 04:32:36;;;;;;;1.47;1.03;;;;;;;12.15;100.00;95015.50;5133167;27;20427;-51
2022/04/26 04:35:06;;;;;;;0.40;0.30;;;;;;;12.44;100.00;95014.31;5132046;27;20499;-51
2022/04/26 04:37:35;;;;;;;1.53;0.87;;;;;;;12.55;100.00;95018.41;5132946;27;20522;-51
2022/04/26 04:40:03;;;;;;;0.30;0.20;;;;;;;12.91;95.22;94997.38;5132907;27;20506;-52
2022/04/26 04:42:33;;;;;;;0.50;0.47;;;;;;;13.13;94.08;95018.06;5133037;27;20466;-52
2022/04/26 04:45:02;;;;;;;1.30;0.67;;;;;;;12.59;98.89;95030.06;5131885;27;20506;-51
2022/04/26 04:47:30;;;;;;;0.93;0.93;;;;;;;12.59;100.00;95029.25;5132593;27;20427;-52
2022/04/26 04:49:59;;;;;;;1.17;0.77;;;;;;;12.49;99.94;95034.72;5132708;27;20437;-51
2022/04/26 04:52:27;;;;;;;0.30;0.20;;;;;;;12.86;94.16;95031.22;5132453;27;21069;-52
2022/04/26 04:54:55;;;;;;;0.30;0.20;;;;;;;13.18;92.30;95028.63;5133234;27;20535;-52
2022/04/26 04:57:24;;;;;;;0.30;0.20;;;;;;;13.41;88.76;95033.00;5132654;27;21014;-52
2022/04/26 04:59:54;;;;;;;0.40;0.30;;;;;;;12.64;85.96;94915.66;5132598;27;20462;-52
2022/04/26 05:02:23;;;;;;;1.03;0.40;;;;;;;13.24;84.96;95040.75;5133085;27;20527;-51
2022/04/26 05:04:51;;;;;;;0.30;0.20;;;;;;;13.78;78.92;95040.84;5132643;27;20426;-51
2022/04/26 05:07:20;;;;;;;0.70;0.70;;;;;;;14.01;73.71;95034.50;5132845;27;20938;-51
2022/04/26 05:09:48;;;;;;;0.50;0.50;;;;;;;13.96;74.69;95039.16;5132443;27;20450;-51
2022/04/26 05:12:18;;;;;;;0.40;0.40;;;;;;;13.71;71.39;95047.66;5132470;27;20494;-51
2022/04/26 05:14:47;;;;;;;0.30;0.20;;;;;;;13.87;69.62;95047.06;5133155;27;20426;-51
2022/04/26 05:17:17;;;;;;;0.40;0.30;;;;;;;14.08;71.29;95044.00;5133065;27;20513;-51
2022/04/26 05:19:45;;;;;;;0.80;0.80;;;;;;;14.07;79.13;95042.41;5131838;27;20431;-51
2022/04/26 05:22:14;;;;;;;0.30;0.30;;;;;;;14.08;79.94;95047.44;5132762;27;20502;-52
2022/04/26 05:24:54;;;;;;;0.40;0.40;;;;;;;14.38;78.66;95044.19;5132778;27;20525;-52
2022/04/26 05:27:23;;;;;;;1.70;0.50;;;;;;;14.60;73.22;95035.44;5132416;27;20966;-52
2022/04/26 05:29:52;;;;;;;0.30;0.20;;;;;;;14.96;67.99;95038.88;5132414;27;20950;-52
2022/04/26 05:32:22;;;;;;;0.40;0.30;;;;;;;14.84;67.08;95041.28;5132629;28;20553;-52
2022/04/26 05:34:57;;;;;;;0.40;0.30;;;;;;;14.96;65.85;95012.19;5132798;28;20477;-52
2022/04/26 05:37:25;;;;;;;0.30;0.20;;;;;;;15.27;64.76;95039.72;5132907;28;20522;-52
2022/04/26 05:39:55;;;;;;;0.50;0.40;;;;;;;14.32;79.35;94973.38;5132270;28;20920;-52
2022/04/26 05:42:23;;;;;;;0.40;0.40;;;;;;;14.58;77.07;95010.94;5132599;28;20455;-52
2022/04/26 05:44:51;;;;;;;0.50;0.50;;;;;;;14.84;73.80;95041.28;5132383;27;20497;-53
2022/04/26 05:47:21;;;;;;;1.47;0.90;;;;;;;14.44;70.30;95044.88;5136653;27;21019;-52
2022/04/26 05:49:50;;;;;;;0.70;0.67;;;;;;;15.09;67.87;95048.69;5136741;27;20453;-52
2022/04/26 05:52:18;;;;;;;0.40;0.40;;;;;;;14.91;65.62;95046.19;5136413;27;20939;-51
2022/04/26 05:54:47;;;;;;;4.00;0.50;;;;;;;14.34;65.38;94943.78;5136237;27;20455;-51
2022/04/26 05:57:15;;;;;;;0.93;0.63;;;;;;;15.16;63.33;95046.41;5136480;27;20462;-53
2022/04/26 05:59:44;;;;;;;0.40;0.27;;;;;;;15.25;61.09;95038.44;5136615;27;20491;-51
2022/04/26 06:02:13;;;;;;;1.60;0.67;;;;;;;15.79;59.68;95038.13;5135728;27;20487;-51
2022/04/26 06:04:44;;;;;;;0.87;0.87;;;;;;;16.48;58.90;95039.13;5136519;27;20467;-54
2022/04/26 06:07:13;;;;;;;0.40;0.40;;;;;;;17.14;53.11;95037.13;5136343;27;20916;-51
2022/04/26 06:09:41;;;;;;;0.47;0.40;;;;;;;16.60;54.86;95038.53;5136568;27;20465;-51
2022/04/26 06:12:10;;;;;;;0.60;0.40;;;;;;;16.72;54.25;95036.00;5136004;27;21052;-50
2022/04/26 06:14:39;;;;;;;0.50;0.43;;;;;;;17.39;53.40;95028.25;5135932;27;20473;-51
2022/04/26 06:17:07;;;;;;;0.67;0.67;;;;;;;18.36;49.43;95029.16;5136229;27;20426;-52
2022/04/26 06:19:35;;;;;;;0.60;0.53;;;;;;;18.17;48.21;94972.44;5135712;27;20527;-52
2022/04/26 06:22:06;;;;;;;0.40;0.30;;;;;;;18.80;46.64;95023.19;5135357;27;20426;-52
2022/04/26 06:24:34;;;;;;;0.73;0.73;;;;;;;18.94;47.32;95018.38;5136242;27;20438;-52
2022/04/26 06:27:03;;;;;;;0.77;0.47;;;;;;;19.42;45.52;95027.75;5136094;27;20466;-52
2022/04/26 06:29:32;;;;;;;1.10;1.10;;;;;;;19.82;45.54;95017.97;5135703;27;20957;-52
2022/04/26 06:32:02;;;;;;;2.40;0.80;;;;;;;19.44;44.13;95026.31;5134703;27;20998;-51
2022/04/26 06:34:30;;;;;;;1.57;0.90;;;;;;;19.77;43.45;95014.72;5135944;27;20427;-52
2022/04/26 06:36:59;;;;;;;4.27;0.40;;;;;;;20.29;42.41;95006.84;5135662;27;20426;-52
2022/04/26 06:39:29;;;;;;;5.93;1.77;;;;;;;20.89;42.70;95010.22;5135910;27;20423;-52
2022/04/26 06:41:57;;;;;;;0.40;0.30;;;;;;;20.75;42.41;95003.59;5134665;27;20744;-52
2022/04/26 06:44:26;;;;;;;0.40;0.30;;;;;;;21.33;40.42;95013.75;5135510;27;20918;-52
2022/04/26 06:47:01;;;;;;;2.00;0.43;;;;;;;21.67;40.35;95003.47;5135678;27;20434;-53
2022/04/26 06:49:30;;;;;;;0.40;0.30;;;;;;;20.75;39.31;94863.53;5135479;27;20924;-53
2022/04/26 06:51:59;;;;;;;0.70;0.50;;;;;;;20.88;39.41;95003.22;5135050;27;20478;-53
2022/04/26 06:54:29;;;;;;;0.40;0.30;;;;;;;20.56;40.79;95009.59;5135512;27;20415;-53
2022/04/26 06:57:00;;;;;;;0.40;0.20;;;;;;;21.52;40.03;94999.63;5135187;27;20434;-54
2022/04/26 06:59:29;;;;;;;0.40;0.30;;;;;;;21.19;39.13;94989.13;5135752;27;20914;-53
2022/04/26 07:01:58;;;;;;;0.40;0.30;;;;;;;22.14;39.14;95004.28;5135448;27;20471;-54
2022/04/26 07:04:27;;;;;;;4.73;0.97;;;;;;;21.70;38.80;94995.47;5135180;27;21168;-54
2022/04/26 07:06:55;;;;;;;0.83;0.83;;;;;;;21.14;39.13;94997.44;5135229;27;20419;-54
2022/04/26 07:09:24;;;;;;;5.63;0.30;;;;;;;21.65;39.92;94994.94;5135215;27;20919;-54
2022/04/26 07:11:54;;;;;;;0.40;0.23;;;;;;;22.07;37.42;94999.50;5135137;27;20823;-54
2022/04/26 07:14:23;;;;;;;0.73;0.73;;;;;;;21.87;37.91;94995.16;5135164;27;20452;-55
2022/04/26 07:16:51;;;;;;;2.57;0.80;;;;;;;22.79;37.03;94996.53;5134949;27;20956;-54
2022/04/26 07:19:22;;;;;;;0.40;0.30;;;;;;;22.59;35.85;94993.75;5135090;27;20427;-56
2022/04/26 07:21:50;;;;;;;0.40;0.30;;;;;;;23.11;35.06;94997.97;5135142;27;20453;-53
2022/04/26 07:24:35;;;;;;;0.40;0.30;;;;;;;22.77;34.59;94992.25;5135190;27;20441;-55
2022/04/26 07:27:05;;;;;;;0.40;0.30;;;;;;;23.01;35.08;94996.63;5135199;27;20502;-54
2022/04/26 07:29:34;;;;;;;0.43;0.30;;;;;;;22.59;35.40;94996.47;5134869;27;20930;-54
2022/04/26 07:32:03;;;;;;;0.40;0.30;;;;;;;23.29;34.84;94993.69;5134507;27;20445;-54
2022/04/26 07:34:31;;;;;;;0.40;0.40;;;;;;;23.68;34.33;94989.06;5134221;27;20826;-54
2022/04/26 07:37:02;;;;;;;0.40;0.30;;;;;;;23.57;35.29;94982.66;5135049;27;20457;-57
2022/04/26 07:39:33;;;;;;;0.50;0.40;;;;;;;23.47;35.18;94991.34;5134978;27;20434;-56
2022/04/26 07:42:05;;;;;;;0.30;0.30;;;;;;;25.11;33.95;94986.22;5134856;27;20422;-55
2022/04/26 07:44:35;;;;;;;0.40;0.40;;;;;;;24.27;33.12;94974.94;5134395;27;20482;-56
2022/04/26 07:47:06;;;;;;;0.40;0.30;;;;;;;24.81;32.86;94980.03;5134220;27;20908;-55
2022/04/26 07:49:37;;;;;;;0.50;0.40;;;;;;;25.95;32.41;94985.59;5134279;27;20514;-55
2022/04/26 07:52:07;;;;;;;5.83;0.83;;;;;;;25.44;30.61;94983.50;5134319;27;20829;-56
2022/04/26 07:54:36;;;;;;;0.40;0.30;;;;;;;25.23;31.55;94981.31;5134284;27;20429;-56
2022/04/26 07:57:06;;;;;;;0.90;0.50;;;;;;;25.81;30.75;94969.94;5134389;27;20471;-56
2022/04/26 07:59:35;;;;;;;0.50;0.50;;;;;;;24.87;31.54;94978.56;5133500;27;20443;-55
2022/04/26 08:02:07;;;;;;;1.40;0.40;;;;;;;26.28;32.51;94967.28;5134265;27;20426;-56
2022/04/26 08:04:36;;;;;;;0.40;0.30;;;;;;;26.83;29.81;94965.31;5134274;27;20458;-56
2022/04/26 08:07:05;;;;;;;0.40;0.30;;;;;;;26.72;29.06;94967.16;5133902;27;20505;-54
2022/04/26 08:09:36;;;;;;;0.40;0.40;;;;;;;27.11;27.98;94967.38;5133349;27;20426;-55
2022/04/26 08:12:07;;;;;;;0.40;0.30;;;;;;;27.66;29.63;94962.50;5133731;27;20910;-55
2022/04/26 08:14:35;;;;;;;0.73;0.30;;;;;;;27.21;28.49;94960.41;5133612;27;20505;-55
2022/04/26 08:17:04;;;;;;;0.47;0.40;;;;;;;26.10;28.95;94966.31;5133782;27;20513;-55
2022/04/26 08:19:33;;;;;;;0.90;0.57;;;;;;;27.30;27.88;94964.31;5133845;27;20426;-56
2022/04/26 08:22:02;;;;;;;0.97;0.97;;;;;;;26.86;29.05;94969.19;5133691;27;20437;-55
2022/04/26 08:27:25;;;;;;;0.30;0.20;;;;;;;26.86;26.91;94961.81;5133616;27;20426;-54
2022/04/26 08:29:54;;;;;;;0.57;0.47;;;;;;;27.49;27.24;94901.41;5133661;27;20438;-54
2022/04/26 08:32:23;;;;;;;1.67;0.30;;;;;;;28.54;27.88;94959.06;5133362;27;20459;-54
2022/04/26 08:34:51;;;;;;;2.00;0.70;;;;;;;27.96;27.31;94962.13;5133589;27;20518;-54
2022/04/26 08:37:20;;;;;;;0.30;0.30;;;;;;;28.58;27.78;94959.81;5133268;27;20426;-54
2022/04/26 08:39:52;;;;;;;0.40;0.30;;;;;;;29.25;26.09;94957.72;5133859;27;20844;-54
2022/04/26 08:42:37;;;;;;;0.30;0.20;;;;;;;30.41;25.25;94947.22;5133660;27;20418;-54
2022/04/26 08:45:13;;;;;;;1.17;0.40;;;;;;;29.62;25.22;94946.22;5092474;28;20420;-54
2022/04/26 08:53:17;;;;;;;0.40;0.30;;;;;;;29.73;25.76;94941.44;5092123;28;20534;-54
2022/04/26 08:55:48;;;;;;;0.43;0.43;;;;;;;30.24;24.62;94948.91;5092728;28;20516;-54
2022/04/26 08:58:19;;;;;;;1.17;0.27;;;;;;;30.85;25.71;94944.44;5092257;28;20471;-54
2022/04/26 09:01:16;;;;;;;1.73;0.40;;;;;;;30.33;25.39;94938.28;5092231;28;20435;-54
2022/04/26 09:03:55;;;;;;;0.47;0.37;;;;;;;29.55;25.58;94938.81;5092307;28;20813;-55
2022/04/26 09:06:35;;;;;;;0.40;0.30;;;;;;;28.63;26.48;94862.06;5092567;28;20423;-54
2022/04/26 09:09:11;;;;;;;0.40;0.30;;;;;;;30.07;26.07;94939.69;5092384;28;20505;-54
2022/04/26 09:11:40;;;;;;;0.87;0.30;;;;;;;30.61;25.72;94926.31;5092159;28;20515;-55
2022/04/26 09:14:28;;;;;;;1.80;1.70;;;;;;;30.80;25.36;94921.03;5091968;28;21012;-55
2022/04/26 09:17:04;;;;;;;0.60;0.60;;;;;;;31.33;25.58;94919.63;5091538;28;20471;-55
2022/04/26 09:19:44;;;;;;;0.40;0.30;;;;;;;30.77;25.42;94915.59;5091502;28;20512;-57
2022/04/26 09:22:25;;;;;;;0.60;0.57;;;;;;;31.24;26.90;94911.16;5091568;28;20428;-57
2022/04/26 09:25:02;;;;;;;0.40;0.30;;;;;;;31.85;24.40;94909.13;5092256;28;20460;-57
2022/04/26 09:27:36;;;;;;;0.40;0.30;;;;;;;31.93;25.76;94911.34;5091816;28;20436;-56
2022/04/26 09:30:10;;;;;;;0.50;0.30;;;;;;;32.12;24.08;94909.91;5091312;28;20472;-57
2022/04/26 09:32:45;;;;;;;0.50;0.30;;;;;;;33.28;23.57;94898.72;5091842;28;20478;-57
2022/04/26 09:35:20;;;;;;;0.40;0.30;;;;;;;32.75;23.25;94904.47;5091812;28;20472;-56
2022/04/26 09:37:49;;;;;;;0.30;0.30;;;;;;;32.60;24.79;94898.50;5091708;28;20459;-56
2022/04/26 09:40:28;;;;;;;0.30;0.20;;;;;;;31.26;25.01;94895.06;5091847;28;20931;-58
2022/04/26 09:42:57;;;;;;;0.50;0.30;;;;;;;32.22;24.36;94895.22;5097175;28;20845;-57
2022/04/26 09:45:27;;;;;;;0.50;0.37;;;;;;;31.59;24.37;94868.81;5132476;28;20438;-57
2022/04/26 09:47:58;;;;;;;0.40;0.30;;;;;;;30.99;24.93;94895.03;5132438;28;20890;-57
2022/04/26 09:50:27;;;;;;;0.60;0.60;;;;;;;31.20;24.88;94889.28;5132312;28;20547;-57
2022/04/26 09:52:56;;;;;;;0.80;0.80;;;;;;;29.40;26.39;94888.19;5132472;28;20427;-57
2022/04/26 09:55:25;;;;;;;1.00;0.50;;;;;;;30.98;25.54;94885.25;5132317;28;20994;-57
2022/04/26 09:57:55;;;;;;;0.50;0.50;;;;;;;29.56;25.23;94876.78;5132111;28;20509;-57
2022/04/26 10:00:24;;;;;;;0.80;0.77;;;;;;;29.20;27.16;94886.38;5132328;28;20446;-57
2022/04/26 10:03:01;;;;;;;1.27;0.83;;;;;;;31.02;26.67;94879.75;5131731;28;20430;-57
2022/04/26 10:05:51;;;;;;;4.83;0.33;;;;;;;31.76;24.31;94873.22;5131914;28;20422;-57
2022/04/26 10:08:20;;;;;;;0.60;0.50;;;;;;;31.76;23.42;94871.28;5132110;28;20465;-57
2022/04/26 10:10:48;;;;;;;0.40;0.37;;;;;;;31.48;23.97;94870.91;5132577;28;20871;-56
2022/04/26 10:13:35;;;;;;;0.30;0.20;;;;;;;30.48;24.07;94884.25;5132019;28;20438;-56
2022/04/26 10:16:06;;;;;;;4.47;1.47;;;;;;;31.49;25.46;94872.47;5132313;28;20474;-57
2022/04/26 10:18:43;;;;;;;0.60;0.60;;;;;;;31.31;25.43;94868.00;5132028;28;20973;-56
2022/04/26 10:21:13;;;;;;;0.40;0.30;;;;;;;29.74;26.63;94871.97;5131734;28;20418;-56
2022/04/26 10:24:12;;;;;;;2.33;1.57;;;;;;;29.96;24.90;94867.91;5131747;28;21009;-60
2022/04/26 10:26:42;;;;;;;0.30;0.20;;;;;;;29.68;24.75;94870.84;5133101;28;20459;-59
2022/04/26 10:29:16;;;;;;;3.50;0.30;;;;;;;28.17;27.42;94864.09;5133133;28;20438;-60
2022/04/26 10:31:45;;;;;;;0.50;0.50;;;;;;;27.87;28.16;94867.22;5133303;27;20510;-60
2022/04/26 10:34:30;;;;;;;0.30;0.20;;;;;;;27.83;29.78;94868.38;5135531;27;20462;-60
2022/04/26 10:37:00;;;;;;;0.40;0.40;;;;;;;28.64;28.48;94855.41;5135659;27;20552;-61
2022/04/26 10:39:31;;;;;;;2.23;0.43;;;;;;;27.75;27.77;94856.72;5136181;27;20450;-61
2022/04/26 10:42:02;;;;;;;0.37;0.33;;;;;;;27.69;25.96;94855.53;5135661;27;20433;-60
2022/04/26 10:44:33;;;;;;;7.60;0.50;;;;;;;27.99;27.37;94852.41;5135269;27;21014;-65
2022/04/26 10:47:35;;;;;;;0.40;0.30;;;;;;;27.99;27.54;94858.63;5135846;27;20423;-60
2022/04/26 10:50:12;;;;;;;0.30;0.20;;;;;;;28.36;25.68;94857.44;5136002;27;20857;-61
2022/04/26 10:52:47;;;;;;;3.03;0.37;;;;;;;27.66;27.56;94848.91;5135654;27;20437;-61
2022/04/26 10:55:18;;;;;;;1.27;0.63;;;;;;;27.25;27.37;94766.03;5134255;27;20522;-61
2022/04/26 10:57:50;;;;;;;0.80;0.80;;;;;;;28.49;26.84;94818.44;5135363;27;20498;-61
2022/04/26 11:00:41;;;;;;;2.20;0.40;;;;;;;28.24;26.88;94804.09;5135455;27;20435;-60
2022/04/26 11:03:10;;;;;;;0.33;0.27;;;;;;;29.23;28.38;94850.09;5128788;27;20495;-62
2022/04/26 11:05:40;;;;;;;0.50;0.37;;;;;;;29.44;25.96;94848.00;5135095;27;20431;-62
2022/04/26 11:08:09;;;;;;;7.00;0.50;;;;;;;29.19;25.29;94843.84;5134849;27;20505;-63
2022/04/26 11:13:37;;;;;;;0.40;0.40;;;;;;;31.33;23.85;94827.28;5134585;27;20442;-61
2022/04/26 11:16:12;;;;;;;0.57;0.40;;;;;;;30.61;24.56;94836.81;5134705;27;20434;-62
2022/04/26 11:18:42;;;;;;;0.57;0.57;;;;;;;30.37;24.65;94826.94;5133909;27;20500;-62
2022/04/26 11:21:17;;;;;;;0.73;0.30;;;;;;;28.92;21.78;94800.72;5134990;27;20438;-61
2022/04/26 11:29:27;;;;;;;0.30;0.20;;;;;;;30.29;22.58;94828.16;5135155;27;20885;-62
2022/04/26 11:31:56;;;;;;;0.50;0.50;;;;;;;29.99;22.45;94762.47;5134969;27;20422;-62
2022/04/26 11:34:46;;;;;;;0.30;0.20;;;;;;;30.18;23.31;94833.72;5134418;27;21052;-63
2022/04/26 11:37:15;;;;;;;0.30;0.20;;;;;;;31.63;22.06;94806.50;5134738;27;20434;-62
2022/04/26 11:39:44;;;;;;;1.80;0.40;;;;;;;30.35;20.14;94817.59;5134805;27;20422;-61
2022/04/26 11:42:13;;;;;;;0.40;0.40;;;;;;;28.52;22.76;94819.59;5134773;27;20442;-63
2022/04/26 11:44:58;;;;;;;0.30;0.30;;;;;;;27.71;22.47;94801.47;5134060;27;20499;-64
2022/04/26 11:47:40;;;;;;;0.40;0.40;;;;;;;27.68;22.52;94816.63;5134842;27;20443;-63
2022/04/26 11:50:14;;;;;;;0.50;0.30;;;;;;;27.73;22.46;94815.44;5134368;27;20491;-63
2022/04/26 11:52:44;;;;;;;0.30;0.20;;;;;;;27.52;22.55;94813.53;5134408;27;20505;-61
2022/04/26 11:55:28;;;;;;;0.30;0.20;;;;;;;28.62;22.14;94805.16;5134188;27;20478;-62
2022/04/26 11:58:12;;;;;;;1.53;0.30;;;;;;;27.70;21.87;94803.41;5134317;27;20473;-61
2022/04/26 12:00:55;;;;;;;0.97;0.40;;;;;;;27.44;20.62;94787.47;5134114;27;20425;-61
2022/04/26 12:03:26;;;;;;;0.30;0.23;;;;;;;27.78;21.63;94797.97;5134190;27;20886;-62
2022/04/26 12:05:58;;;;;;;0.40;0.30;;;;;;;26.46;21.57;94791.50;5134003;27;20411;-62
2022/04/26 12:08:28;;;;;;;0.30;0.20;;;;;;;25.90;22.18;94793.91;5134171;27;20514;-63
2022/04/26 12:11:16;;;;;;;0.30;0.20;;;;;;;26.24;23.39;94789.06;5134102;27;20430;-55
2022/04/26 12:13:45;;;;;;;1.70;1.43;;;;;;;25.50;22.20;94788.59;5133310;27;20509;-55
2022/04/26 12:16:21;;;;;;;0.30;0.30;;;;;;;26.89;21.17;94778.06;5133745;27;20466;-55
2022/04/26 12:18:52;;;;;;;0.30;0.20;;;;;;;27.40;20.94;94783.22;5133797;27;20456;-56
2022/04/26 12:21:21;;;;;;;0.77;0.40;;;;;;;26.23;22.45;94774.72;5133714;27;20425;-56
2022/04/26 12:24:11;;;;;;;0.30;0.20;;;;;;;26.67;21.17;94776.41;5134027;27;20865;-55
2022/04/26 12:26:54;;;;;;;0.37;0.27;;;;;;;27.34;21.52;94760.22;5133988;27;20470;-55
2022/04/26 12:29:23;;;;;;;0.50;0.30;;;;;;;26.22;21.28;94765.00;5133693;27;20430;-56
2022/04/26 12:31:51;;;;;;;0.30;0.20;;;;;;;27.67;20.59;94755.19;5133407;27;20457;-56
2022/04/26 12:34:21;;;;;;;0.33;0.30;;;;;;;28.63;20.06;94761.16;5133388;27;20488;-55
2022/04/26 12:36:54;;;;;;;0.90;0.90;;;;;;;28.67;19.97;94764.63;5133603;27;20497;-56
2022/04/26 12:39:26;;;;;;;8.03;0.50;;;;;;;29.72;19.93;94758.81;5133672;27;20437;-56
2022/04/26 12:41:58;;;;;;;0.40;0.30;;;;;;;29.37;19.14;94749.00;5133850;27;20453;-56
2022/04/26 12:44:26;;;;;;;0.30;0.20;;;;;;;29.09;21.12;94752.69;5133139;27;20497;-56
2022/04/26 12:52:54;;;;;;;0.90;0.53;;;;;;;30.36;18.47;94748.06;5133401;27;20468;-56
2022/04/26 12:55:29;;;;;;;0.40;0.30;;;;;;;29.86;18.83;94743.09;5133120;27;20925;-56
2022/04/26 12:57:58;;;;;;;2.67;0.47;;;;;;;28.39;19.60;94745.63;5133281;27;20903;-58
2022/04/26 13:00:28;;;;;;;0.30;0.23;;;;;;;27.98;20.74;94758.25;5133054;27;20463;-59
2022/04/26 13:02:58;;;;;;;0.60;0.60;;;;;;;28.76;19.66;94751.34;5133224;27;20502;-56
2022/04/26 13:05:37;;;;;;;0.30;0.20;;;;;;;30.05;18.59;94750.72;5132831;27;20429;-56
2022/04/26 13:08:05;;;;;;;0.30;0.20;;;;;;;29.28;18.20;94746.72;5132803;27;20454;-56
2022/04/26 13:10:35;;;;;;;0.40;0.30;;;;;;;29.51;18.26;94741.47;5132963;27;20978;-56
2022/04/26 13:13:05;;;;;;;0.40;0.30;;;;;;;28.64;19.07;94655.59;5132886;27;20893;-56
2022/04/26 13:15:34;;;;;;;0.30;0.30;;;;;;;29.34;19.34;94744.34;5132641;27;20847;-56
2022/04/26 13:18:03;;;;;;;5.73;0.40;;;;;;;29.90;19.80;94724.72;5132965;27;20454;-55
2022/04/26 13:20:32;;;;;;;0.40;0.30;;;;;;;29.52;19.64;94739.50;5132282;27;20419;-55
2022/04/26 13:23:01;;;;;;;0.40;0.30;;;;;;;29.13;19.57;94733.53;5133019;27;20512;-55
2022/04/26 13:25:29;;;;;;;0.40;0.40;;;;;;;29.45;19.71;94743.06;5132695;27;20415;-56
2022/04/26 13:27:59;;;;;;;0.40;0.33;;;;;;;30.28;18.58;94730.16;5132625;27;20824;-55
2022/04/26 13:30:27;;;;;;;0.40;0.30;;;;;;;29.78;19.55;94733.41;5132849;28;20446;-56
2022/04/26 13:32:56;;;;;;;0.30;0.30;;;;;;;29.40;19.76;94748.94;5132702;27;20454;-55
2022/04/26 13:35:25;;;;;;;0.30;0.27;;;;;;;29.85;18.74;94740.78;5132540;28;20489;-56
2022/04/26 13:37:54;;;;;;;0.30;0.20;;;;;;;30.85;18.92;94732.94;5132666;28;20433;-56
2022/04/26 13:40:23;;;;;;;0.40;0.40;;;;;;;30.93;19.12;94734.41;5132717;28;20422;-55
2022/04/26 13:42:57;;;;;;;0.33;0.27;;;;;;;31.57;17.35;94723.25;5132388;28;20458;-55
2022/04/26 13:45:27;;;;;;;0.30;0.30;;;;;;;30.88;18.57;94723.91;5132435;28;20426;-55
2022/04/26 13:47:56;;;;;;;1.03;1.03;;;;;;;30.08;18.00;94683.53;5132783;28;20465;-56
2022/04/26 13:50:25;;;;;;;0.40;0.30;;;;;;;30.21;18.40;94727.50;5132733;28;20434;-56
2022/04/26 13:52:53;;;;;;;0.30;0.30;;;;;;;29.60;18.45;94732.78;5132195;28;21020;-56
2022/04/26 13:55:22;;;;;;;0.30;0.20;;;;;;;30.26;17.01;94727.06;5132633;28;20498;-55
2022/04/26 13:57:52;;;;;;;0.30;0.20;;;;;;;29.89;19.36;94714.97;5132431;28;20426;-57
2022/04/26 14:00:24;;;;;;;0.30;0.20;;;;;;;30.07;19.44;94725.69;5132488;28;20433;-58
2022/04/26 14:02:54;;;;;;;0.30;0.20;;;;;;;30.34;17.84;94718.34;5131841;28;20967;-56
2022/04/26 14:05:23;;;;;;;0.30;0.30;;;;;;;29.36;17.63;94725.59;5132616;27;20429;-57
2022/04/26 14:07:52;;;;;;;0.30;0.30;;;;;;;29.97;17.50;94715.66;5135648;27;20445;-57
2022/04/26 14:10:20;;;;;;;0.30;0.27;;;;;;;29.26;17.26;94726.47;5136731;27;20426;-57
2022/04/26 14:12:49;;;;;;;0.40;0.30;;;;;;;29.86;18.16;94726.69;5136695;27;20498;-55
2022/04/26 14:23:33;;;;;;;0.40;0.27;;;;;;;29.38;19.11;94734.94;5101719;27;20573;-56
2022/04/26 14:26:03;;;;;;;0.47;0.37;;;;;;;29.08;19.40;94731.25;5135775;27;21024;-55
2022/04/26 14:28:32;;;;;;;2.40;0.97;;;;;;;28.40;19.71;94741.75;5136118;27;20483;-56
2022/04/26 14:31:00;;;;;;;0.30;0.20;;;;;;;28.59;19.54;94732.31;5136333;27;20490;-56
2022/04/26 14:33:33;;;;;;;0.40;0.30;;;;;;;29.20;19.35;94733.50;5136027;27;20434;-56
2022/04/26 14:36:02;;;;;;;0.60;0.60;;;;;;;28.28;18.63;94638.63;5135996;27;20468;-57
2022/04/26 14:38:32;;;;;;;0.40;0.30;;;;;;;28.46;19.44;94728.50;5135772;27;20415;-57
2022/04/26 14:41:01;;;;;;;4.73;0.87;;;;;;;28.83;19.73;94734.94;5135706;27;20505;-57
2022/04/26 14:43:30;;;;;;;0.77;0.77;;;;;;;27.69;20.40;94728.34;5135187;27;21053;-57
2022/04/26 14:45:58;;;;;;;0.40;0.30;;;;;;;27.96;20.75;94727.88;5136395;27;20466;-57
2022/04/26 14:48:30;;;;;;;9.10;0.40;;;;;;;27.51;19.67;94643.19;5136044;27;20899;-58
2022/04/26 14:51:00;;;;;;;0.30;0.20;;;;;;;28.44;19.02;94731.59;5136029;27;20431;-58
2022/04/26 14:53:28;;;;;;;0.77;0.40;;;;;;;27.55;20.42;94731.06;5135605;27;20517;-58
2022/04/26 14:56:07;;;;;;;0.30;0.20;;;;;;;27.38;20.27;94720.94;5136462;27;21004;-59
2022/04/26 14:58:57;;;;;;;0.30;0.30;;;;;;;27.52;19.79;94723.72;5136856;27;20829;-60
2022/04/26 15:01:29;;;;;;;0.40;0.30;;;;;;;27.33;19.88;94740.41;5136534;27;21001;-59
2022/04/26 15:03:58;;;;;;;0.40;0.30;;;;;;;26.73;20.12;94723.22;5134267;27;20463;-59
2022/04/26 15:06:29;;;;;;;0.40;0.40;;;;;;;26.67;20.23;94730.19;5134944;27;20980;-58
2022/04/26 15:11:44;;;;;;;0.40;0.30;;;;;;;27.34;20.39;94730.28;5134994;27;20422;-59
2022/04/26 15:16:58;;;;;;;0.30;0.20;;;;;;;26.54;20.41;94705.31;5135090;27;20557;-59
2022/04/26 15:19:29;;;;;;;2.57;0.70;;;;;;;26.92;20.66;94731.03;5135735;27;20426;-60
2022/04/26 15:22:00;;;;;;;0.50;0.50;;;;;;;26.32;20.31;94723.50;5136007;27;20484;-59
2022/04/26 15:24:28;;;;;;;0.37;0.30;;;;;;;26.11;21.34;94726.13;5137497;27;20776;-59
2022/04/26 15:26:58;;;;;;;0.40;0.30;;;;;;;26.14;20.56;94736.25;5135428;27;20513;-59
2022/04/26 15:29:27;;;;;;;6.73;0.37;;;;;;;26.00;21.58;94727.25;5135513;27;20447;-60
2022/04/26 15:31:55;;;;;;;0.40;0.30;;;;;;;25.82;22.95;94735.28;5134667;27;20446;-58
2022/04/26 15:34:24;;;;;;;0.40;0.40;;;;;;;25.92;23.17;94725.63;5134969;27;20771;-59
2022/04/26 15:36:53;;;;;;;0.40;0.30;;;;;;;25.66;23.42;94726.66;5134625;27;20538;-62
2022/04/26 15:39:27;;;;;;;0.40;0.30;;;;;;;25.39;24.86;94733.44;5135840;27;20410;-59
2022/04/26 15:41:57;;;;;;;0.40;0.30;;;;;;;25.24;25.86;94732.56;5135476;27;20422;-61
2022/04/26 15:44:26;;;;;;;0.40;0.30;;;;;;;25.19;25.31;94741.03;5135063;27;20474;-59
2022/04/26 15:46:56;;;;;;;0.40;0.30;;;;;;;25.27;25.11;94728.31;5135194;27;20446;-59
2022/04/26 15:49:26;;;;;;;0.40;0.30;;;;;;;25.08;25.52;94737.47;5134841;27;20522;-59
2022/04/26 15:51:56;;;;;;;0.40;0.30;;;;;;;24.90;25.54;94734.59;5134320;27;20815;-58
2022/04/26 15:54:26;;;;;;;0.40;0.30;;;;;;;25.03;25.83;94733.16;5134606;27;20438;-58
2022/04/26 15:56:54;;;;;;;0.40;0.30;;;;;;;24.81;26.40;94738.78;5134417;27;20454;-59
2022/04/26 15:59:22;;;;;;;0.80;0.50;;;;;;;24.35;26.27;94665.91;5134311;27;20525;-58
2022/04/26 16:01:51;;;;;;;1.70;0.83;;;;;;;24.67;25.83;94735.91;5134720;27;20507;-58
2022/04/26 16:04:21;;;;;;;0.43;0.40;;;;;;;24.30;25.80;94671.66;5135203;27;20438;-58
2022/04/26 16:06:50;;;;;;;0.40;0.30;;;;;;;24.50;26.35;94715.59;5135163;27;20496;-58